Alexandria, Nebraska
Current Conditions -  °F | °C
As of 9:55 AM on Thursday 30 Oct 2014 (Local Time) from KHJH Reporting Station
Clear Clear  
Wind Chill: 53°   Ceiling: Unl
Heat Index: 53°   Visibility: 10mi
Dew Point: 36°   Wind: 9mph
Humidity: 53%   Direction: 330°NNW
Pressure: 30.13"   Gusts: NA
Location:  40.25°N, 97.39°W
Report Text: KHJH 301455Z AUTO 33008KT 10SM CLR 12/02 A3013 RMK AO2 T01180024
Loading
Personal Weather Stations






























Interactive Weather Map
Tropical Storm Tracking
New forecast layout! Learn more

10-Day Weather Forecast

Advertisements
Track Severe Weather on mobile